Hauptseite
METAR-TAF:

METAR-TAF

Flughäfen :

Heeresflugplatz Altenstadt

Altenstadt, Deutschland

Breite: 47-50N, Länge: 010-52E, Höhe: 739 m

Beobachtung

Neuester Wetterbericht von vor 26 Minuten, um 21:20 UTC
Wind 6 kt aus Ost
Temperatur -2°C
Luftfeuchtigkeit 93%
Luftdruck 1017 hPa

METAR: ETHA 122120Z AUTO 09006KT //// // ////// M02/M03 Q1017 ///

Zeit: 22:46 (21:46 UTC)

Prognose

Neuester Wetterbericht von vor 4 Stunden und 38 Minuten, um 17:08 UTC
Gültige Prognose vom 12 um 15 UTC bis 12 um 24 UTC
Wind 3 kt aus unterschiedlichen Richtungen
Sichtweite 10 km oder mehr
Leicht bewölkt in der Höhe von 1500 ft
Aufgelockert bewölkt in der Höhe von 2500 ft
Übergehend zu
vom 12 um 15 UTC bis 12 um 17 UTC
Wind 5 kt aus Nordost
Sichtweite: 1720 m
Durchbrochene Bewölkung in der Höhe von 1000 ft

TAF: ETHA 121708Z 1215/1224 VRB03KT 9999 NSW FEW015 SCT025 BECMG 1215/1217 05005KT 9999 NSW BKN010 CANCEL 1720

Wetterbeobachtungen und Prognosen von mehr als 4000 Flughäfen (METAR und TAF Bericht).

Die verfügbaren Stationen werden durch gelbe und rote Markierungen auf der Karte dargestellt.

Führen Sie die Maus auf sie, um den Namen der Station zu sehen.

Darauf klicken, um die Beobachtung von Wetterbeobachtungen und Prognosen zu sehen.

Um die Karte zu ändern : klicken Sie auf den grünen Tasten mit einem schwarzen Kreuz Zum Vergrößern, auf den grünen Button mit einem Gedankenstrich zu verkleinern, oder auf die grünen Pfeile für benachbarte Karten.


METAR-TAF: